Time;durP1;ratioP1;P1;durP2;ratioP2;P2;SDS_P1;SDS_P2;PMS_P1;PMS_P2;Temp;Humidity;BMP_temperature;BMP_pressure;BME280_temperature;BME280_humidity;BME280_pressure;Samples;Min_cycle;Max_cycle;Signal;HPM_P1;HPM_P2
2022/08/16 00:00:38;;;;;;;5.03;2.20;;;21.00;99.60;;;;;;5093886;28;20024;-84
2022/08/16 00:03:04;;;;;;;2.22;1.80;;;21.00;99.30;;;;;;5099476;28;20110;-82
2022/08/16 00:05:31;;;;;;;4.20;1.90;;;21.00;99.30;;;;;;5093707;28;20028;-86
2022/08/16 00:07:57;;;;;;;5.07;2.50;;;21.00;99.60;;;;;;5109941;28;20054;-83
2022/08/16 00:10:25;;;;;;;4.90;2.47;;;21.00;99.40;;;;;;5109464;28;20468;-85
2022/08/16 00:12:52;;;;;;;3.97;2.28;;;21.00;99.50;;;;;;5121110;28;20031;-88
2022/08/16 00:15:26;;;;;;;4.18;2.08;;;21.00;99.60;;;;;;5101733;28;20032;-81
2022/08/16 00:17:51;;;;;;;3.85;2.08;;;21.00;99.60;;;;;;5094025;28;20020;-84
2022/08/16 00:20:18;;;;;;;3.38;2.30;;;21.00;99.60;;;;;;5093121;28;20039;-83
2022/08/16 00:22:44;;;;;;;3.92;2.30;;;21.00;99.60;;;;;;5093804;28;20024;-83
2022/08/16 00:25:13;;;;;;;3.35;2.55;;;21.00;99.70;;;;;;5092845;28;20039;-83
2022/08/16 00:27:39;;;;;;;3.88;2.50;;;20.90;99.80;;;;;;5093419;28;20028;-84
2022/08/16 00:30:09;;;;;;;4.20;2.47;;;21.00;99.80;;;;;;5108897;28;20027;-82
2022/08/16 00:32:37;;;;;;;3.33;2.60;;;20.90;99.90;;;;;;5111279;28;20020;-83
2022/08/16 00:35:03;;;;;;;4.53;2.75;;;20.90;99.90;;;;;;5095506;28;20059;-81
2022/08/16 00:37:29;;;;;;;6.15;2.50;;;20.90;99.90;;;;;;5129768;28;20059;-85
2022/08/16 00:39:54;;;;;;;2.72;2.40;;;20.90;99.90;;;;;;5130160;28;20055;-84
2022/08/16 00:42:20;;;;;;;4.07;3.58;;;20.80;99.90;;;;;;5113676;28;20078;-83
2022/08/16 00:45:00;;;;;;;4.00;3.42;;;20.80;99.90;;;;;;5130091;28;20031;-84
2022/08/16 00:47:25;;;;;;;5.70;2.90;;;20.80;99.90;;;;;;5113792;28;20032;-84
2022/08/16 00:49:52;;;;;;;5.47;3.30;;;20.80;99.90;;;;;;5129982;28;20426;-81
2022/08/16 00:52:18;;;;;;;5.32;3.00;;;20.80;99.90;;;;;;5130058;28;20032;-81
2022/08/16 00:54:44;;;;;;;4.38;2.75;;;20.80;99.90;;;;;;5113682;28;20095;-84
2022/08/16 00:57:11;;;;;;;3.88;2.40;;;20.80;99.90;;;;;;5129891;28;20160;-84
2022/08/16 00:59:38;;;;;;;6.05;2.85;;;20.80;99.90;;;;;;5129908;28;20024;-81
2022/08/16 01:02:07;;;;;;;3.60;3.00;;;20.70;99.90;;;;;;5113750;28;20020;-81
2022/08/16 01:04:33;;;;;;;3.20;2.42;;;20.70;99.90;;;;;;5113569;28;20042;-85
2022/08/16 01:07:04;;;;;;;4.75;2.78;;;20.80;99.90;;;;;;5113178;28;20024;-87
2022/08/16 01:09:33;;;;;;;3.33;2.42;;;20.70;99.90;;;;;;5112330;28;20114;-85
2022/08/16 01:11:59;;;;;;;4.32;3.05;;;20.70;99.90;;;;;;5113796;28;20027;-84
2022/08/16 01:14:30;;;;;;;3.38;2.83;;;20.70;99.90;;;;;;5130541;27;20032;-84
2022/08/16 01:16:58;;;;;;;5.45;2.63;;;20.70;99.90;;;;;;5117516;28;20024;-84
2022/08/16 01:19:30;;;;;;;4.95;3.10;;;20.70;99.90;;;;;;5116878;28;20085;-83
2022/08/16 01:22:07;;;;;;;6.10;3.42;;;20.70;99.90;;;;;;5117310;28;20027;-84
2022/08/16 01:24:41;;;;;;;3.75;2.85;;;20.70;99.90;;;;;;5098078;28;20032;-83
2022/08/16 01:27:15;;;;;;;6.72;3.10;;;20.70;99.90;;;;;;5096350;28;20035;-80
2022/08/16 01:30:04;;;;;;;4.97;3.10;;;20.70;99.90;;;;;;5096856;28;20020;-81
2022/08/16 01:32:34;;;;;;;4.78;2.80;;;20.60;99.90;;;;;;5088608;28;20040;-81
2022/08/16 01:35:01;;;;;;;4.82;3.30;;;20.70;99.90;;;;;;5115404;28;20026;-81
2022/08/16 01:37:28;;;;;;;6.82;2.95;;;20.60;99.90;;;;;;5096923;28;20626;-83
2022/08/16 01:39:53;;;;;;;4.57;3.50;;;20.60;99.90;;;;;;5120123;27;20024;-83
2022/08/16 01:42:19;;;;;;;9.85;5.45;;;20.70;99.90;;;;;;5116351;28;20039;-82
2022/08/16 01:44:45;;;;;;;7.93;4.22;;;20.70;99.90;;;;;;5132506;27;20468;-82
2022/08/16 01:47:11;;;;;;;6.68;3.47;;;20.60;99.90;;;;;;5132267;27;20037;-82
2022/08/16 01:49:40;;;;;;;6.13;3.13;;;20.60;99.90;;;;;;5116715;28;20030;-84
2022/08/16 01:52:10;;;;;;;6.53;3.20;;;20.60;99.90;;;;;;5130983;27;20034;-80
2022/08/16 01:54:37;;;;;;;6.68;2.45;;;20.60;99.90;;;;;;5116879;28;20529;-82
2022/08/16 01:57:04;;;;;;;5.18;3.00;;;20.50;99.90;;;;;;5133035;27;20053;-81
2022/08/16 01:59:30;;;;;;;5.13;2.95;;;20.50;99.90;;;;;;5132213;27;20468;-81
2022/08/16 02:01:56;;;;;;;3.70;2.80;;;20.50;99.90;;;;;;5116439;28;20027;-82
2022/08/16 02:04:24;;;;;;;4.72;3.10;;;20.50;99.90;;;;;;5116086;28;20024;-78
2022/08/16 02:06:50;;;;;;;4.55;2.70;;;20.50;99.90;;;;;;5132397;27;20472;-82
2022/08/16 02:09:18;;;;;;;4.07;2.60;;;20.40;99.90;;;;;;5131441;27;20384;-81
2022/08/16 02:11:48;;;;;;;5.85;2.90;;;20.40;99.90;;;;;;5132453;27;20035;-82
2022/08/16 02:14:15;;;;;;;5.30;2.80;;;20.40;99.90;;;;;;5117476;27;20131;-81
2022/08/16 02:16:43;;;;;;;4.00;2.80;;;20.40;99.90;;;;;;5095955;28;20060;-83
2022/08/16 02:19:10;;;;;;;3.47;2.90;;;20.40;99.90;;;;;;5111355;28;20024;-79
2022/08/16 02:21:36;;;;;;;4.30;2.80;;;20.30;99.90;;;;;;5111654;28;20119;-86
2022/08/16 02:24:02;;;;;;;4.82;2.60;;;20.30;99.90;;;;;;5105761;28;20114;-82
2022/08/16 02:26:28;;;;;;;4.30;2.67;;;20.20;99.90;;;;;;5110296;28;20460;-81
2022/08/16 02:28:54;;;;;;;2.97;2.67;;;20.20;99.90;;;;;;5131648;27;20100;-84
2022/08/16 02:31:19;;;;;;;2.83;2.35;;;20.20;99.90;;;;;;5132064;27;20030;-82
2022/08/16 02:33:45;;;;;;;3.72;2.88;;;20.20;99.90;;;;;;5116415;28;20027;-81
2022/08/16 02:36:12;;;;;;;4.22;2.40;;;20.10;99.90;;;;;;5115874;28;20023;-79
2022/08/16 02:38:39;;;;;;;5.00;2.78;;;20.10;99.90;;;;;;5131219;27;20051;-80
2022/08/16 02:41:07;;;;;;;5.35;2.80;;;20.10;99.90;;;;;;5115939;27;20114;-84
2022/08/16 02:43:33;;;;;;;6.10;2.90;;;20.10;99.90;;;;;;5114848;28;20066;-83
2022/08/16 02:45:59;;;;;;;3.17;2.60;;;20.00;99.90;;;;;;5131309;27;20084;-81
2022/08/16 02:48:27;;;;;;;3.35;2.30;;;20.10;99.90;;;;;;5131244;27;20023;-81
2022/08/16 02:50:52;;;;;;;2.65;2.42;;;20.00;99.90;;;;;;5115623;28;20024;-82
2022/08/16 02:53:18;;;;;;;4.28;2.95;;;20.00;99.90;;;;;;5131212;27;20035;-81
2022/08/16 02:55:44;;;;;;;4.30;2.70;;;20.00;99.90;;;;;;5131878;27;20027;-83
2022/08/16 02:58:10;;;;;;;4.40;2.53;;;20.00;99.90;;;;;;5115233;28;20058;-80
2022/08/16 03:00:37;;;;;;;4.30;2.58;;;20.00;99.90;;;;;;5115489;28;20028;-83
2022/08/16 03:03:03;;;;;;;7.40;3.20;;;19.90;99.90;;;;;;5114235;28;20096;-83
2022/08/16 03:05:29;;;;;;;5.95;2.58;;;19.90;99.90;;;;;;5114804;28;20032;-82
2022/08/16 03:07:55;;;;;;;5.75;2.72;;;19.90;99.90;;;;;;5113996;28;20024;-83
2022/08/16 03:10:21;;;;;;;5.03;2.97;;;19.80;99.90;;;;;;5113653;28;20030;-82
2022/08/16 03:12:48;;;;;;;4.85;2.83;;;19.70;99.90;;;;;;5130728;27;20114;-82
2022/08/16 03:15:15;;;;;;;3.40;2.60;;;19.80;99.90;;;;;;5106832;27;20032;-81
2022/08/16 03:17:41;;;;;;;4.10;2.80;;;19.80;99.90;;;;;;5121604;27;20028;-82
2022/08/16 03:20:11;;;;;;;5.03;2.70;;;19.70;99.90;;;;;;5110635;28;20024;-82
2022/08/16 03:22:37;;;;;;;3.80;2.90;;;19.70;99.90;;;;;;5110600;28;20035;-82
2022/08/16 03:25:06;;;;;;;4.47;2.80;;;19.70;99.90;;;;;;5110565;28;20389;-82
2022/08/16 03:27:32;;;;;;;5.75;3.05;;;19.80;99.90;;;;;;5094445;28;20028;-82
2022/08/16 03:30:14;;;;;;;4.30;2.63;;;19.80;99.90;;;;;;5094796;28;20024;-82
2022/08/16 03:32:40;;;;;;;3.58;2.40;;;19.80;99.90;;;;;;5095013;28;20076;-82
2022/08/16 03:35:07;;;;;;;5.28;2.60;;;19.80;99.90;;;;;;5110640;28;20393;-83
2022/08/16 03:37:34;;;;;;;3.58;2.40;;;19.80;99.90;;;;;;5093213;28;20154;-83
2022/08/16 03:40:00;;;;;;;2.38;2.10;;;19.90;99.90;;;;;;5126253;27;20080;-83
2022/08/16 03:42:25;;;;;;;2.75;2.33;;;19.90;99.90;;;;;;5113648;28;20047;-84
2022/08/16 03:44:51;;;;;;;4.03;2.88;;;19.80;99.90;;;;;;5130675;27;20085;-84
2022/08/16 03:47:17;;;;;;;5.43;2.70;;;19.80;99.90;;;;;;5130459;27;20031;-82
2022/08/16 03:49:43;;;;;;;4.60;2.50;;;19.80;99.90;;;;;;5130405;27;20030;-83
2022/08/16 03:52:09;;;;;;;4.63;2.47;;;19.80;99.90;;;;;;5114796;28;20023;-85
2022/08/16 03:54:35;;;;;;;3.33;2.30;;;19.70;99.90;;;;;;5130368;27;20023;-85
2022/08/16 03:57:01;;;;;;;5.10;2.85;;;19.70;99.90;;;;;;5130838;27;20029;-85
2022/08/16 03:59:27;;;;;;;3.70;2.53;;;19.70;99.90;;;;;;5113623;28;20536;-87
2022/08/16 04:01:53;;;;;;;4.30;2.60;;;19.70;99.90;;;;;;5114263;28;20115;-87
2022/08/16 04:04:18;;;;;;;7.32;2.90;;;19.60;99.90;;;;;;5113933;28;20056;-83
2022/08/16 04:06:44;;;;;;;4.07;3.00;;;19.60;99.90;;;;;;5130531;27;20066;-82
2022/08/16 04:09:11;;;;;;;3.35;2.47;;;19.60;99.90;;;;;;5130435;27;20031;-83
2022/08/16 04:11:37;;;;;;;2.50;2.30;;;19.50;99.90;;;;;;5130337;27;20039;-83
2022/08/16 04:14:03;;;;;;;2.92;2.17;;;19.50;99.90;;;;;;5130660;27;20028;-83
2022/08/16 04:16:31;;;;;;;5.20;2.53;;;19.50;99.90;;;;;;5114133;28;20076;-83
2022/08/16 04:18:57;;;;;;;5.55;3.00;;;19.50;99.90;;;;;;5114436;28;20084;-83
2022/08/16 04:21:22;;;;;;;4.55;2.67;;;19.50;99.90;;;;;;5129791;28;20031;-83
2022/08/16 04:23:48;;;;;;;6.10;2.70;;;19.50;99.90;;;;;;5123609;28;20048;-85
2022/08/16 04:26:13;;;;;;;4.30;2.50;;;19.50;99.90;;;;;;5096112;28;20028;-85
2022/08/16 04:28:39;;;;;;;3.08;2.60;;;19.60;99.90;;;;;;5113944;28;20337;-85
2022/08/16 04:31:05;;;;;;;4.50;2.70;;;19.60;99.90;;;;;;5111548;28;20024;-84
2022/08/16 04:33:31;;;;;;;4.45;2.80;;;19.60;99.90;;;;;;5129492;28;20461;-84
2022/08/16 04:35:57;;;;;;;4.40;3.13;;;19.60;99.90;;;;;;5130173;28;20031;-86
2022/08/16 04:38:24;;;;;;;4.45;2.78;;;19.70;99.90;;;;;;5113079;28;20818;-85
2022/08/16 04:40:50;;;;;;;3.47;2.53;;;19.70;99.90;;;;;;5111914;28;20062;-85
2022/08/16 04:43:16;;;;;;;4.60;2.60;;;19.70;99.90;;;;;;5110205;28;20060;-81
2022/08/16 04:45:42;;;;;;;3.67;2.67;;;19.70;99.90;;;;;;5130350;28;20034;-84
2022/08/16 04:48:09;;;;;;;3.67;2.80;;;19.60;99.90;;;;;;5133209;28;20111;-84
2022/08/16 04:50:35;;;;;;;4.57;2.95;;;19.70;99.90;;;;;;5132841;27;20123;-85
2022/08/16 04:53:00;;;;;;;4.57;3.00;;;19.60;99.90;;;;;;5118313;28;20047;-85
2022/08/16 04:55:28;;;;;;;4.35;2.85;;;19.70;99.90;;;;;;5114647;27;20035;-84
2022/08/16 04:57:55;;;;;;;5.20;3.05;;;19.70;99.90;;;;;;5115289;28;20032;-85
2022/08/16 05:00:23;;;;;;;4.50;2.50;;;19.60;99.90;;;;;;5133409;27;20030;-82
2022/08/16 05:02:52;;;;;;;4.80;3.03;;;19.60;99.90;;;;;;5117465;28;20056;-85
2022/08/16 05:05:18;;;;;;;5.03;2.83;;;19.70;99.90;;;;;;5115846;27;20028;-79
2022/08/16 05:07:45;;;;;;;7.70;3.35;;;19.80;99.90;;;;;;5097122;28;20130;-87
2022/08/16 05:10:10;;;;;;;2.80;2.60;;;19.80;99.90;;;;;;5117447;27;20032;-86
2022/08/16 05:12:36;;;;;;;7.53;2.85;;;19.90;99.90;;;;;;5111921;28;20076;-85
2022/08/16 05:15:03;;;;;;;3.65;2.97;;;19.90;99.90;;;;;;5113138;28;20040;-84
2022/08/16 05:17:30;;;;;;;6.68;2.70;;;19.90;99.90;;;;;;5112499;28;20537;-83
2022/08/16 05:19:56;;;;;;;4.82;2.70;;;20.00;99.90;;;;;;5097042;28;20068;-85
2022/08/16 05:22:22;;;;;;;4.50;2.90;;;20.00;99.90;;;;;;5112169;28;20119;-83
2022/08/16 05:24:48;;;;;;;3.65;2.70;;;20.10;99.80;;;;;;5112682;28;20094;-84
2022/08/16 05:27:14;;;;;;;4.20;2.90;;;20.10;99.70;;;;;;5112794;28;20028;-85
2022/08/16 05:29:40;;;;;;;5.28;2.72;;;20.20;99.70;;;;;;5112343;28;20571;-85
2022/08/16 05:32:06;;;;;;;8.10;3.38;;;20.20;99.60;;;;;;5129512;27;20026;-82
2022/08/16 05:34:31;;;;;;;7.60;2.80;;;20.30;99.50;;;;;;5103555;28;20038;-82
2022/08/16 05:36:57;;;;;;;11.55;3.45;;;20.30;99.40;;;;;;5095583;28;20030;-82
2022/08/16 05:39:24;;;;;;;5.53;3.03;;;20.40;99.40;;;;;;5110550;28;20122;-81
2022/08/16 05:41:51;;;;;;;6.80;2.88;;;20.40;99.30;;;;;;5118412;27;20052;-87
2022/08/16 05:44:18;;;;;;;4.55;2.90;;;20.50;99.30;;;;;;5096492;28;20028;-83
2022/08/16 05:46:44;;;;;;;5.10;2.92;;;20.40;99.30;;;;;;5116466;27;20070;-88
2022/08/16 05:49:15;;;;;;;5.35;3.22;;;20.50;99.40;;;;;;5096375;28;20449;-86
2022/08/16 05:51:45;;;;;;;5.55;3.30;;;20.50;99.30;;;;;;5094976;28;20119;-85
2022/08/16 05:54:13;;;;;;;5.43;2.95;;;20.50;99.20;;;;;;5095396;28;20028;-87
2022/08/16 05:56:39;;;;;;;10.55;3.45;;;20.50;99.30;;;;;;5094771;28;20110;-86
2022/08/16 05:59:06;;;;;;;10.60;2.72;;;20.50;99.40;;;;;;5096145;28;20492;-86
2022/08/16 06:01:32;;;;;;;5.05;2.83;;;20.40;99.60;;;;;;5101563;28;20031;-87
2022/08/16 06:03:57;;;;;;;4.25;2.88;;;20.50;99.70;;;;;;5114023;27;20023;-88
2022/08/16 06:06:23;;;;;;;3.85;2.63;;;20.40;99.90;;;;;;5094717;28;20036;-80
2022/08/16 06:08:48;;;;;;;7.13;2.90;;;20.40;99.90;;;;;;5094832;28;20020;-85
2022/08/16 06:11:14;;;;;;;4.63;2.92;;;20.30;99.90;;;;;;5100580;28;20103;-86
2022/08/16 06:13:41;;;;;;;4.80;2.92;;;20.30;99.90;;;;;;5116026;28;20028;-86
2022/08/16 06:16:07;;;;;;;8.50;3.33;;;20.20;99.90;;;;;;5133005;27;20024;-84
2022/08/16 06:18:32;;;;;;;12.80;3.65;;;20.30;99.90;;;;;;5115683;28;20047;-84
2022/08/16 06:20:58;;;;;;;11.00;3.80;;;20.30;99.90;;;;;;5126650;27;20461;-84
2022/08/16 06:23:25;;;;;;;13.05;3.90;;;20.30;99.90;;;;;;5111499;28;20028;-84
2022/08/16 06:25:51;;;;;;;7.50;3.28;;;20.30;99.90;;;;;;5111536;28;20119;-85
2022/08/16 06:28:18;;;;;;;7.68;4.00;;;20.40;99.90;;;;;;5111852;28;20024;-86
2022/08/16 06:30:45;;;;;;;5.78;3.80;;;20.50;99.90;;;;;;5110993;28;20633;-85
2022/08/16 06:33:16;;;;;;;5.72;4.00;;;20.60;99.90;;;;;;5119357;27;20031;-87
2022/08/16 06:35:41;;;;;;;5.78;4.10;;;20.60;99.90;;;;;;5131478;27;20039;-85
2022/08/16 06:38:08;;;;;;;6.57;4.40;;;20.70;99.90;;;;;;5130287;27;20028;-88
2022/08/16 06:40:33;;;;;;;6.65;3.83;;;20.80;99.90;;;;;;5093682;28;20028;-87
2022/08/16 06:42:59;;;;;;;7.18;3.80;;;20.80;99.90;;;;;;5095305;28;20139;-87
2022/08/16 06:45:25;;;;;;;7.80;4.13;;;20.90;99.90;;;;;;5094013;28;20059;-81
2022/08/16 06:47:51;;;;;;;8.38;4.68;;;20.90;99.90;;;;;;5094212;28;20468;-87
2022/08/16 06:50:17;;;;;;;5.25;4.13;;;21.00;99.90;;;;;;5094302;28;20028;-86
2022/08/16 06:52:44;;;;;;;7.90;4.00;;;21.00;99.90;;;;;;5093829;28;20032;-86
2022/08/16 06:55:12;;;;;;;6.43;3.70;;;21.00;99.90;;;;;;5095202;28;20473;-87
2022/08/16 06:57:38;;;;;;;4.80;3.65;;;21.00;99.90;;;;;;5094034;28;20111;-84
2022/08/16 07:00:14;;;;;;;5.38;3.80;;;21.10;99.90;;;;;;5095238;28;20063;-85
2022/08/16 07:02:41;;;;;;;7.30;3.80;;;21.10;99.90;;;;;;5097016;28;20024;-85
2022/08/16 07:05:08;;;;;;;6.00;4.00;;;21.20;99.90;;;;;;5116082;27;20057;-83
2022/08/16 07:07:34;;;;;;;6.05;3.50;;;21.20;99.90;;;;;;5114950;28;20095;-85
2022/08/16 07:10:00;;;;;;;8.50;3.85;;;21.30;99.90;;;;;;5131409;27;20031;-85
2022/08/16 07:12:26;;;;;;;5.63;3.70;;;21.30;99.90;;;;;;5131264;27;20035;-80
2022/08/16 07:14:52;;;;;;;4.07;3.60;;;21.40;99.90;;;;;;5103511;28;20036;-83
2022/08/16 07:17:20;;;;;;;4.07;3.40;;;21.50;99.90;;;;;;5110786;28;20393;-83
2022/08/16 07:19:45;;;;;;;5.43;3.60;;;21.50;99.90;;;;;;5096281;28;20028;-81
2022/08/16 07:22:11;;;;;;;5.32;3.60;;;21.60;99.80;;;;;;5109926;28;20027;-82
2022/08/16 07:24:37;;;;;;;7.90;3.83;;;21.60;99.70;;;;;;5130401;27;20027;-85
2022/08/16 07:27:03;;;;;;;5.40;3.65;;;21.70;99.60;;;;;;5131244;27;20220;-84
2022/08/16 07:29:29;;;;;;;8.48;3.35;;;21.70;99.50;;;;;;5130833;27;20031;-79
2022/08/16 07:31:55;;;;;;;5.38;3.70;;;21.80;99.40;;;;;;5131356;27;20376;-82
2022/08/16 07:34:21;;;;;;;6.78;3.63;;;21.80;99.10;;;;;;5131160;27;20049;-83
2022/08/16 07:36:47;;;;;;;6.30;3.55;;;21.80;99.20;;;;;;5114433;28;20515;-81
2022/08/16 07:39:13;;;;;;;5.63;3.80;;;21.90;98.80;;;;;;5114460;28;20098;-82
2022/08/16 07:41:40;;;;;;;6.97;3.50;;;21.90;98.60;;;;;;5130346;27;20388;-83
2022/08/16 07:44:06;;;;;;;7.30;3.40;;;22.00;98.60;;;;;;5131163;27;20111;-83
2022/08/16 07:46:32;;;;;;;6.22;3.60;;;22.00;98.80;;;;;;5130621;27;20119;-81
2022/08/16 07:48:58;;;;;;;4.60;3.80;;;22.00;98.50;;;;;;5114888;28;20027;-83
2022/08/16 07:51:23;;;;;;;5.78;3.53;;;22.00;98.50;;;;;;5125942;27;20034;-83
2022/08/16 07:53:50;;;;;;;9.05;3.50;;;22.10;98.40;;;;;;5110420;27;20206;-80
2022/08/16 07:56:19;;;;;;;6.50;3.60;;;22.10;98.30;;;;;;5094279;28;20016;-82
2022/08/16 07:58:45;;;;;;;11.02;3.60;;;22.10;98.20;;;;;;5093724;28;20152;-82
2022/08/16 08:01:12;;;;;;;7.00;3.95;;;22.20;98.20;;;;;;5120457;27;20024;-81
2022/08/16 08:03:39;;;;;;;9.18;3.25;;;22.20;98.00;;;;;;5124318;27;20179;-81
2022/08/16 08:06:05;;;;;;;7.28;3.63;;;22.30;98.00;;;;;;5113814;28;20110;-80
2022/08/16 08:08:31;;;;;;;5.18;3.30;;;22.40;98.00;;;;;;5113471;28;20047;-81
2022/08/16 08:10:57;;;;;;;7.32;4.10;;;22.40;97.70;;;;;;5112364;28;20092;-82
2022/08/16 08:13:23;;;;;;;5.25;3.47;;;22.50;97.60;;;;;;5112822;28;20453;-81
2022/08/16 08:15:49;;;;;;;5.70;3.50;;;22.60;97.50;;;;;;5111815;28;20501;-81
2022/08/16 08:18:15;;;;;;;6.78;3.53;;;22.60;97.50;;;;;;5112897;28;20114;-84
2022/08/16 08:20:44;;;;;;;5.93;3.78;;;22.60;97.30;;;;;;5113321;28;20059;-84
2022/08/16 08:23:11;;;;;;;5.53;3.45;;;22.60;97.40;;;;;;5112907;28;20028;-83
2022/08/16 08:25:39;;;;;;;6.18;3.90;;;22.70;97.20;;;;;;5129989;27;20026;-83
2022/08/16 08:28:05;;;;;;;6.75;3.53;;;22.70;97.40;;;;;;5128020;27;20156;-82
2022/08/16 08:30:31;;;;;;;6.00;3.50;;;22.80;97.40;;;;;;5116475;28;20019;-80
2022/08/16 08:32:57;;;;;;;7.10;3.63;;;22.80;97.10;;;;;;5105582;28;20035;-81
2022/08/16 08:35:22;;;;;;;4.45;3.65;;;22.90;97.00;;;;;;5118266;28;20043;-83
2022/08/16 08:37:48;;;;;;;8.43;4.18;;;22.90;97.00;;;;;;5125787;27;20016;-83
2022/08/16 08:40:14;;;;;;;7.00;3.92;;;22.90;96.80;;;;;;5117066;28;20027;-81
2022/08/16 08:42:42;;;;;;;4.32;3.55;;;22.90;96.50;;;;;;5116005;28;20035;-82
2022/08/16 08:45:10;;;;;;;8.13;3.88;;;22.90;96.50;;;;;;5117324;28;20087;-81
2022/08/16 08:47:36;;;;;;;11.15;3.83;;;22.90;96.50;;;;;;5118372;28;20038;-83
2022/08/16 08:50:03;;;;;;;6.82;4.22;;;22.90;96.70;;;;;;5116229;28;20107;-80
2022/08/16 08:52:29;;;;;;;10.20;3.67;;;22.90;96.20;;;;;;5113582;28;20029;-80
2022/08/16 08:54:54;;;;;;;5.60;3.88;;;22.90;96.30;;;;;;5120328;27;20111;-83
2022/08/16 08:57:21;;;;;;;6.00;4.35;;;23.00;96.40;;;;;;5111364;27;20055;-80
2022/08/16 08:59:46;;;;;;;9.05;4.50;;;23.10;96.10;;;;;;5100191;27;20042;-78
2022/08/16 09:02:14;;;;;;;5.28;4.10;;;23.10;95.80;;;;;;5116791;27;20452;-76
2022/08/16 09:04:41;;;;;;;9.25;4.25;;;23.10;95.10;;;;;;5135781;27;20058;-77
2022/08/16 09:07:06;;;;;;;6.22;4.10;;;23.20;94.90;;;;;;5135128;27;20031;-76
2022/08/16 09:09:32;;;;;;;6.15;3.72;;;23.20;94.50;;;;;;5118129;27;20030;-77
2022/08/16 09:11:58;;;;;;;7.07;3.65;;;23.20;94.30;;;;;;5134116;27;20066;-77
2022/08/16 09:14:23;;;;;;;5.72;3.80;;;23.30;94.60;;;;;;5128945;27;20480;-76
2022/08/16 09:16:50;;;;;;;6.47;4.00;;;23.30;94.80;;;;;;5114747;27;20403;-80
2022/08/16 09:19:16;;;;;;;4.05;3.60;;;23.40;94.80;;;;;;5127695;27;20030;-77
2022/08/16 09:21:42;;;;;;;7.50;4.00;;;23.40;94.80;;;;;;5119117;27;20514;-80
2022/08/16 09:24:08;;;;;;;6.88;3.88;;;23.40;94.80;;;;;;5114658;27;20058;-78
2022/08/16 09:26:33;;;;;;;6.00;3.92;;;23.50;94.70;;;;;;5120126;27;20391;-77
2022/08/16 09:28:59;;;;;;;6.05;4.00;;;23.60;94.30;;;;;;5113741;27;20026;-77
2022/08/16 09:31:24;;;;;;;6.65;3.83;;;23.70;94.10;;;;;;5115093;28;20460;-83
2022/08/16 09:33:51;;;;;;;9.25;4.20;;;23.80;94.00;;;;;;5132123;27;20038;-81
2022/08/16 09:36:17;;;;;;;4.70;3.80;;;24.00;93.60;;;;;;5119330;27;20030;-80
2022/08/16 09:38:44;;;;;;;7.68;3.90;;;24.10;93.30;;;;;;5131189;27;20480;-80
2022/08/16 09:41:10;;;;;;;6.43;3.90;;;24.30;93.10;;;;;;5114311;27;20031;-79
2022/08/16 09:43:37;;;;;;;5.90;4.00;;;24.40;92.50;;;;;;5115379;27;20054;-80
2022/08/16 09:46:06;;;;;;;5.53;3.88;;;24.40;92.30;;;;;;5148389;27;20223;-82
2022/08/16 09:48:33;;;;;;;7.32;4.07;;;24.50;92.00;;;;;;5120670;27;20047;-80
2022/08/16 09:50:59;;;;;;;5.78;3.92;;;24.60;91.70;;;;;;5124567;27;20028;-82
2022/08/16 09:53:25;;;;;;;5.60;3.67;;;24.70;91.50;;;;;;5128731;27;20023;-81
2022/08/16 09:55:54;;;;;;;9.32;3.95;;;24.60;91.30;;;;;;5117965;27;20071;-82
2022/08/16 09:58:22;;;;;;;6.82;4.13;;;24.50;91.40;;;;;;5115977;27;20098;-82
2022/08/16 10:00:49;;;;;;;8.18;3.55;;;24.50;91.40;;;;;;5126273;27;20051;-80
2022/08/16 10:03:16;;;;;;;6.03;3.80;;;24.50;91.50;;;;;;5127757;27;20027;-80
2022/08/16 10:05:42;;;;;;;5.65;3.65;;;24.70;91.20;;;;;;5134725;27;20106;-81
2022/08/16 10:08:08;;;;;;;3.83;3.25;;;24.70;91.30;;;;;;5117654;27;20417;-79
2022/08/16 10:10:34;;;;;;;5.22;3.50;;;24.70;91.60;;;;;;5127871;27;20083;-79
2022/08/16 10:13:13;;;;;;;4.40;3.28;;;24.90;90.30;;;;;;5123477;27;20028;-85
2022/08/16 10:15:45;;;;;;;12.20;3.42;;;24.90;90.00;;;;;;5130556;27;20031;-82
2022/08/16 10:18:12;;;;;;;4.05;3.53;;;24.90;90.00;;;;;;5107067;27;20023;-82
2022/08/16 10:20:44;;;;;;;6.22;3.50;;;25.00;89.70;;;;;;5132021;27;20049;-82
2022/08/16 10:23:12;;;;;;;;;;;25.00;89.20;;;;;;5114271;28;20073;-79
2022/08/16 10:25:40;;;;;;;6.60;3.72;;;25.00;89.40;;;;;;5113948;27;19908;-78
2022/08/16 10:28:06;;;;;;;3.63;3.13;;;25.00;89.70;;;;;;5116886;27;20033;-79
2022/08/16 10:30:32;;;;;;;4.10;2.63;;;25.00;88.90;;;;;;5115854;27;20043;-82
2022/08/16 10:32:58;;;;;;;5.88;2.90;;;25.10;88.10;;;;;;5114888;27;20092;-82
2022/08/16 10:35:24;;;;;;;3.08;2.80;;;25.10;86.70;;;;;;5114651;27;20175;-81
2022/08/16 10:37:50;;;;;;;5.57;3.33;;;25.00;86.30;;;;;;5113834;28;20089;-81
2022/08/16 10:40:16;;;;;;;4.47;3.03;;;25.00;86.70;;;;;;5115547;27;20023;-81
2022/08/16 10:42:42;;;;;;;2.95;2.65;;;24.90;87.10;;;;;;5115301;27;20055;-81
2022/08/16 10:45:08;;;;;;;5.35;2.80;;;24.90;86.10;;;;;;5122011;27;20039;-82
2022/08/16 10:47:34;;;;;;;3.90;3.30;;;24.90;86.20;;;;;;5128056;27;20102;-79
2022/08/16 10:50:00;;;;;;;3.80;2.80;;;24.90;86.60;;;;;;5116928;27;20098;-81
2022/08/16 10:52:26;;;;;;;3.88;2.40;;;24.90;86.20;;;;;;5128122;27;20472;-82
2022/08/16 10:54:52;;;;;;;2.97;2.60;;;25.10;84.60;;;;;;5118588;27;20047;-79
2022/08/16 10:57:18;;;;;;;4.40;2.58;;;25.30;83.10;;;;;;5113585;27;20441;-78
2022/08/16 10:59:43;;;;;;;2.83;2.50;;;25.30;82.60;;;;;;5126501;27;20491;-79
2022/08/16 11:02:09;;;;;;;3.05;2.13;;;25.40;83.30;;;;;;5116483;27;20487;-79
2022/08/16 11:04:35;;;;;;;2.88;2.03;;;25.50;80.80;;;;;;5126186;27;20114;-79
2022/08/16 11:07:03;;;;;;;3.65;2.03;;;25.50;80.40;;;;;;5120129;27;20480;-79
2022/08/16 11:09:28;;;;;;;3.25;2.00;;;25.60;80.10;;;;;;5114059;28;20074;-80
2022/08/16 11:11:54;;;;;;;5.13;2.58;;;25.60;79.20;;;;;;5113555;28;20059;-78
2022/08/16 11:14:20;;;;;;;2.10;1.90;;;25.60;79.00;;;;;;5113200;28;20476;-75
2022/08/16 11:16:45;;;;;;;4.13;2.00;;;25.70;77.20;;;;;;5113672;28;20019;-77
2022/08/16 11:19:11;;;;;;;2.95;1.83;;;25.70;76.80;;;;;;5113297;28;20034;-76
2022/08/16 11:21:37;;;;;;;4.65;2.10;;;25.80;76.90;;;;;;5112732;28;20418;-77
2022/08/16 11:24:04;;;;;;;2.50;2.08;;;25.80;77.50;;;;;;5113672;28;20028;-75
2022/08/16 11:26:29;;;;;;;3.35;1.83;;;25.90;78.00;;;;;;5113069;28;20031;-77
2022/08/16 11:28:56;;;;;;;4.05;1.85;;;26.00;76.50;;;;;;5112589;28;20240;-76
2022/08/16 11:31:23;;;;;;;3.97;2.13;;;26.10;76.00;;;;;;5114349;28;20077;-76
2022/08/16 11:33:49;;;;;;;1.95;1.70;;;26.10;76.70;;;;;;5112593;28;20531;-76
2022/08/16 11:36:15;;;;;;;2.38;1.90;;;26.00;76.00;;;;;;5112948;28;20027;-76
2022/08/16 11:38:40;;;;;;;2.17;1.98;;;26.10;75.70;;;;;;5112440;28;20110;-77
2022/08/16 11:41:06;;;;;;;2.20;2.00;;;26.20;75.90;;;;;;5112674;28;20460;-77
2022/08/16 11:43:35;;;;;;;3.75;1.95;;;26.30;76.90;;;;;;5114329;28;20047;-76
2022/08/16 11:46:04;;;;;;;2.50;2.10;;;26.20;76.70;;;;;;5113303;28;20031;-76
2022/08/16 11:48:32;;;;;;;3.15;1.95;;;26.30;76.00;;;;;;5113125;28;20110;-77
2022/08/16 11:50:59;;;;;;;2.97;2.38;;;26.40;76.30;;;;;;5112425;28;20123;-77
2022/08/16 11:53:27;;;;;;;2.13;2.00;;;26.50;76.00;;;;;;5112837;28;20027;-77
2022/08/16 11:55:53;;;;;;;4.82;2.50;;;26.50;76.30;;;;;;5112172;28;20027;-76
2022/08/16 11:58:19;;;;;;;2.60;2.25;;;26.60;76.50;;;;;;5111998;28;20027;-76
2022/08/16 12:00:45;;;;;;;7.35;2.65;;;26.70;75.80;;;;;;5112909;28;20103;-76
2022/08/16 12:03:11;;;;;;;6.97;2.30;;;26.80;75.60;;;;;;5113746;28;20073;-77
2022/08/16 12:05:38;;;;;;;3.85;2.42;;;27.00;74.90;;;;;;5113556;28;20028;-76
2022/08/16 12:08:05;;;;;;;2.75;2.40;;;27.20;74.60;;;;;;5112484;28;20042;-77
2022/08/16 12:10:33;;;;;;;4.13;2.20;;;27.20;73.80;;;;;;5112410;28;20061;-77
2022/08/16 12:12:59;;;;;;;2.92;2.25;;;27.30;73.80;;;;;;5111842;28;20058;-76
2022/08/16 12:15:26;;;;;;;5.50;2.40;;;27.50;72.80;;;;;;5112022;28;20036;-76
2022/08/16 12:17:54;;;;;;;1.83;1.67;;;27.60;71.40;;;;;;5113269;28;20081;-76
2022/08/16 12:20:24;;;;;;;2.25;1.95;;;27.70;69.10;;;;;;5112292;28;20055;-76
2022/08/16 12:22:51;;;;;;;3.40;2.08;;;27.70;68.60;;;;;;5111839;28;20019;-77
2022/08/16 12:25:18;;;;;;;3.08;1.90;;;27.70;69.40;;;;;;5112182;28;20032;-76
2022/08/16 12:27:45;;;;;;;2.20;2.00;;;27.60;69.30;;;;;;5112830;28;20216;-77
2022/08/16 12:30:14;;;;;;;1.95;1.75;;;27.60;70.10;;;;;;5112563;28;20058;-77
2022/08/16 12:32:40;;;;;;;2.78;1.90;;;27.70;70.10;;;;;;5111975;28;20028;-80
2022/08/16 12:35:09;;;;;;;3.75;1.77;;;27.90;69.70;;;;;;5113361;28;20020;-77
2022/08/16 12:37:35;;;;;;;4.78;1.98;;;28.10;69.00;;;;;;5112398;28;20031;-76
2022/08/16 12:40:01;;;;;;;4.97;2.20;;;28.10;67.80;;;;;;5111800;28;20023;-77
2022/08/16 12:42:28;;;;;;;3.25;2.13;;;28.10;67.10;;;;;;5113398;28;20071;-77
2022/08/16 12:44:53;;;;;;;4.43;2.60;;;28.10;67.10;;;;;;5112900;28;20542;-77